Time;durP1;ratioP1;P1;durP2;ratioP2;P2;SDS_P1;SDS_P2;PMS_P1;PMS_P2;Temp;Humidity;BMP_temperature;BMP_pressure;BME280_temperature;BME280_humidity;BME280_pressure;Samples;Min_cycle;Max_cycle;Signal;HPM_P1;HPM_P2
2021/12/15 00:00:24;;;;;;;25.00;13.60;;;;;;;4.77;100.00;96444.00;4954189;29;20275;-67
2021/12/15 00:02:51;;;;;;;21.43;13.03;;;;;;;4.76;100.00;96443.22;4953965;28;20535;-68
2021/12/15 00:05:22;;;;;;;24.63;13.20;;;;;;;4.77;100.00;96449.41;4953765;29;20216;-68
2021/12/15 00:07:50;;;;;;;21.90;12.37;;;;;;;4.72;100.00;96455.84;4954045;29;20236;-69
2021/12/15 00:10:16;;;;;;;22.03;13.20;;;;;;;4.71;100.00;96450.78;4953680;29;20217;-49
2021/12/15 00:12:42;;;;;;;23.93;13.43;;;;;;;4.73;100.00;96459.34;4953731;29;20643;-61
2021/12/15 00:15:08;;;;;;;34.87;20.70;;;;;;;4.74;100.00;96458.22;4953837;29;20195;-61
2021/12/15 00:17:33;;;;;;;29.70;16.83;;;;;;;4.74;100.00;96458.22;4953610;29;20181;-62
2021/12/15 00:19:59;;;;;;;22.17;12.60;;;;;;;4.72;100.00;96460.44;4953557;29;20280;-59
2021/12/15 00:22:24;;;;;;;23.20;13.57;;;;;;;4.74;100.00;96467.09;4953784;29;20184;-60
2021/12/15 00:24:50;;;;;;;24.80;13.10;;;;;;;4.75;100.00;96470.59;4953746;29;20187;-63
2021/12/15 00:27:16;;;;;;;22.00;12.50;;;;;;;4.71;100.00;96461.59;4953541;28;20193;-68
2021/12/15 00:29:41;;;;;;;23.00;14.00;;;;;;;4.71;100.00;96475.13;4953717;29;20209;-55
2021/12/15 00:32:07;;;;;;;23.37;13.10;;;;;;;4.72;100.00;96474.78;4953642;28;20196;-56
2021/12/15 00:34:37;;;;;;;22.50;12.63;;;;;;;4.70;100.00;96470.84;4953602;29;20658;-54
2021/12/15 00:37:03;;;;;;;22.00;12.67;;;;;;;4.71;100.00;96470.50;4953709;29;20220;-57
2021/12/15 00:39:29;;;;;;;22.67;13.17;;;;;;;4.74;100.00;96471.75;4953497;29;20188;-55
2021/12/15 00:41:55;;;;;;;25.37;14.37;;;;;;;4.74;100.00;96467.09;4953556;29;20554;-56
2021/12/15 00:44:21;;;;;;;24.77;15.07;;;;;;;4.77;100.00;96465.66;4952998;28;20542;-55
2021/12/15 00:46:50;;;;;;;24.53;13.70;;;;;;;4.76;100.00;96464.84;4953543;29;20249;-68
2021/12/15 00:49:15;;;;;;;22.30;12.50;;;;;;;4.73;100.00;96465.53;4953129;29;20224;-59
2021/12/15 00:51:42;;;;;;;24.47;13.90;;;;;;;4.73;100.00;96470.16;4953266;29;20201;-59
2021/12/15 00:54:09;;;;;;;22.90;14.27;;;;;;;4.73;100.00;96467.47;4953353;29;20189;-58
2021/12/15 00:56:35;;;;;;;27.20;14.63;;;;;;;4.73;100.00;96470.16;4953500;29;20279;-59
2021/12/15 00:59:03;;;;;;;26.13;14.13;;;;;;;4.72;100.00;96484.81;4953309;28;20241;-58
2021/12/15 01:01:28;;;;;;;24.43;13.97;;;;;;;4.70;100.00;96474.31;4953426;29;20261;-59
2021/12/15 01:03:54;;;;;;;23.03;13.33;;;;;;;4.60;100.00;96477.50;4953299;28;20197;-59
2021/12/15 01:06:21;;;;;;;24.17;13.33;;;;;;;4.51;100.00;96484.13;4953183;28;20212;-47
2021/12/15 01:08:52;;;;;;;26.50;13.17;;;;;;;4.50;100.00;96482.53;4953025;29;20216;-47
2021/12/15 01:11:43;;;;;;;26.23;13.20;;;;;;;4.42;100.00;96491.56;4953246;28;20193;-49
2021/12/15 01:19:51;;;;;;;25.77;13.80;;;;;;;4.55;100.00;96501.28;4954681;29;20225;-49
2021/12/15 01:22:19;;;;;;;24.83;14.00;;;;;;;4.54;100.00;96500.47;4953078;28;20189;-46
2021/12/15 01:24:44;;;;;;;24.70;12.77;;;;;;;4.53;100.00;96493.50;4952787;28;20271;-60
2021/12/15 01:27:10;;;;;;;26.17;13.67;;;;;;;4.52;100.00;96496.53;4953111;29;20236;-69
2021/12/15 01:29:35;;;;;;;24.80;13.73;;;;;;;4.48;100.00;96496.41;4953024;29;20267;-67
2021/12/15 01:32:02;;;;;;;24.23;13.30;;;;;;;4.46;100.00;96492.47;4952992;29;20207;-68
2021/12/15 01:34:27;;;;;;;25.07;13.97;;;;;;;4.42;100.00;96496.97;4953195;28;20217;-68
2021/12/15 01:36:53;;;;;;;24.30;13.53;;;;;;;4.39;100.00;96493.03;4953445;29;20197;-68
2021/12/15 01:39:18;;;;;;;24.07;13.67;;;;;;;4.37;100.00;96500.66;4953359;29;20259;-66
2021/12/15 01:41:44;;;;;;;25.20;13.70;;;;;;;4.39;100.00;96505.75;4953069;28;20243;-60
2021/12/15 01:46:57;;;;;;;26.27;13.60;;;;;;;4.36;100.00;96498.28;4957695;28;20272;-48
2021/12/15 01:49:40;;;;;;;27.30;14.57;;;;;;;4.37;100.00;96505.31;4956389;29;20220;-46
2021/12/15 01:52:33;;;;;;;22.53;12.53;;;;;;;4.35;100.00;96497.53;4956171;28;20209;-49
2021/12/15 01:55:11;;;;;;;25.93;13.80;;;;;;;4.40;100.00;96504.63;4951981;28;20201;-49
2021/12/15 01:57:37;;;;;;;26.17;13.30;;;;;;;4.44;100.00;96510.94;4956334;29;20193;-47
2021/12/15 02:00:09;;;;;;;23.93;13.60;;;;;;;4.44;100.00;96516.34;4956144;29;20209;-47
2021/12/15 02:02:34;;;;;;;25.63;13.43;;;;;;;4.43;100.00;96503.94;4956060;28;20194;-67
2021/12/15 02:04:59;;;;;;;24.23;13.10;;;;;;;4.42;100.00;96508.56;4956506;29;20629;-67
2021/12/15 02:07:25;;;;;;;25.77;14.20;;;;;;;4.39;100.00;96498.44;4956643;29;20197;-68
2021/12/15 02:12:20;;;;;;;25.50;13.13;;;;;;;4.45;100.00;96496.28;4957157;28;20289;-67
2021/12/15 02:14:47;;;;;;;23.50;13.37;;;;;;;4.46;100.00;96492.47;4955924;29;20260;-67
2021/12/15 02:17:12;;;;;;;28.77;15.00;;;;;;;4.44;100.00;96494.72;4956080;29;20421;-67
2021/12/15 02:19:38;;;;;;;24.27;13.37;;;;;;;4.45;100.00;96485.47;4956198;28;20313;-56
2021/12/15 02:22:04;;;;;;;23.00;12.90;;;;;;;4.44;100.00;96492.03;4956123;28;20197;-58
2021/12/15 02:24:29;;;;;;;27.33;14.30;;;;;;;4.45;100.00;96490.88;4955795;29;20197;-56
2021/12/15 02:26:59;;;;;;;22.10;12.53;;;;;;;4.49;100.00;96497.19;4955904;28;20221;-58
2021/12/15 02:29:26;;;;;;;26.17;14.37;;;;;;;4.48;100.00;96484.81;4956118;28;20223;-58
2021/12/15 02:31:58;;;;;;;25.07;13.37;;;;;;;4.52;100.00;96491.13;4955601;29;20193;-56
2021/12/15 02:37:18;;;;;;;25.47;13.57;;;;;;;4.57;100.00;96488.19;4957017;28;20190;-61
2021/12/15 02:39:53;;;;;;;23.77;12.73;;;;;;;4.55;100.00;96485.03;4955866;28;20256;-60
2021/12/15 02:42:22;;;;;;;23.57;13.43;;;;;;;4.47;100.00;96485.91;4955330;29;20208;-60
2021/12/15 02:44:47;;;;;;;25.30;13.30;;;;;;;4.43;100.00;96482.31;4955435;28;20197;-59
2021/12/15 02:47:15;;;;;;;24.17;13.93;;;;;;;4.39;100.00;96484.09;4955488;28;20202;-60
2021/12/15 02:49:41;;;;;;;24.70;13.67;;;;;;;4.36;100.00;96476.66;4955173;29;20220;-60
2021/12/15 02:52:08;;;;;;;23.30;13.47;;;;;;;4.35;100.00;96477.81;4955226;29;20295;-60
2021/12/15 02:54:33;;;;;;;26.10;13.27;;;;;;;4.32;100.00;96481.16;4954759;28;20193;-61
2021/12/15 02:57:05;;;;;;;23.63;12.97;;;;;;;4.27;100.00;96478.69;4955669;29;20193;-59
2021/12/15 02:59:42;;;;;;;25.87;13.30;;;;;;;4.31;100.00;96487.72;4955088;29;20196;-60
2021/12/15 03:05:06;;;;;;;26.97;14.10;;;;;;;4.35;100.00;96502.94;4956358;29;20259;-59
2021/12/15 03:08:03;;;;;;;26.00;14.10;;;;;;;4.36;100.00;96492.88;4955133;29;20199;-59
2021/12/15 03:15:49;;;;;;;22.67;13.07;;;;;;;4.41;100.00;96484.56;4955997;29;20231;-58
2021/12/15 03:18:18;;;;;;;24.67;13.37;;;;;;;4.43;100.00;96487.72;4954917;29;20193;-61
2021/12/15 03:20:50;;;;;;;28.60;14.17;;;;;;;4.41;100.00;96479.16;4954999;28;20339;-56
2021/12/15 03:23:25;;;;;;;25.07;13.57;;;;;;;4.38;100.00;96482.53;4954995;29;20193;-55
2021/12/15 03:25:51;;;;;;;25.03;14.20;;;;;;;4.40;100.00;96483.78;4954682;29;20255;-58
2021/12/15 03:36:39;;;;;;;24.73;13.50;;;;;;;4.44;100.00;96470.38;4955656;28;20185;-60
2021/12/15 03:39:07;;;;;;;24.27;13.03;;;;;;;4.44;100.00;96483.91;4954797;29;20317;-59
2021/12/15 03:41:33;;;;;;;21.53;12.43;;;;;;;4.42;100.00;96480.75;4954476;29;20189;-60
2021/12/15 03:43:59;;;;;;;25.77;13.77;;;;;;;4.42;100.00;96486.16;4954608;29;20181;-59
2021/12/15 03:46:25;;;;;;;23.53;13.00;;;;;;;4.41;100.00;96495.38;4954302;29;20193;-60
2021/12/15 03:48:50;;;;;;;24.43;13.90;;;;;;;4.40;100.00;96499.22;4954183;29;20212;-60
2021/12/15 03:51:16;;;;;;;26.80;13.70;;;;;;;4.37;100.00;96516.13;4954321;29;20216;-61
2021/12/15 03:53:43;;;;;;;26.17;12.07;;;;;;;4.30;100.00;96503.13;4954091;28;20204;-67
2021/12/15 03:56:11;;;;;;;22.03;12.63;;;;;;;4.34;100.00;96500.56;4954011;29;20193;-68
2021/12/15 03:58:37;;;;;;;24.30;12.83;;;;;;;4.36;100.00;96498.28;4954144;29;20209;-68
2021/12/15 04:01:07;;;;;;;22.77;12.33;;;;;;;4.31;100.00;96506.63;4954492;29;20193;-67
2021/12/15 04:03:38;;;;;;;22.13;12.73;;;;;;;4.27;100.00;96501.13;4954064;29;20203;-67
2021/12/15 04:06:06;;;;;;;19.17;11.00;;;;;;;4.30;100.00;96507.75;4953551;28;20201;-68
2021/12/15 04:08:34;;;;;;;18.83;11.27;;;;;;;4.34;100.00;96505.97;4953421;28;20213;-59
2021/12/15 04:11:01;;;;;;;20.47;11.37;;;;;;;4.29;100.00;96506.19;4954377;29;20204;-68
2021/12/15 04:13:27;;;;;;;37.30;19.30;;;;;;;4.24;100.00;96509.09;4953964;29;20193;-68
2021/12/15 04:15:56;;;;;;;46.07;22.27;;;;;;;4.25;100.00;96507.97;4953705;29;20199;-68
2021/12/15 04:18:22;;;;;;;35.77;15.20;;;;;;;4.15;100.00;96503.00;4953687;29;20592;-67
2021/12/15 04:20:48;;;;;;;27.63;15.23;;;;;;;4.15;100.00;96511.13;4953599;29;20250;-67
2021/12/15 04:23:19;;;;;;;25.80;14.50;;;;;;;4.14;100.00;96517.63;4953891;29;20185;-68
2021/12/15 04:25:47;;;;;;;21.77;12.37;;;;;;;4.13;100.00;96516.84;4953940;28;20295;-68
2021/12/15 04:28:17;;;;;;;20.30;12.10;;;;;;;4.11;100.00;96512.91;4953446;29;20209;-49
2021/12/15 04:30:48;;;;;;;23.80;13.50;;;;;;;4.08;100.00;96513.56;4953629;29;20189;-68
2021/12/15 04:33:26;;;;;;;25.47;13.20;;;;;;;4.09;100.00;96515.94;4953383;28;20193;-68
2021/12/15 04:35:55;;;;;;;29.37;16.43;;;;;;;4.16;100.00;96515.38;4953693;28;20265;-67
2021/12/15 04:38:24;;;;;;;24.53;14.97;;;;;;;4.10;100.00;96512.09;4953371;29;20177;-68
2021/12/15 04:40:50;;;;;;;23.30;13.40;;;;;;;4.08;100.00;96518.97;4953258;28;20188;-68
2021/12/15 04:43:16;;;;;;;26.13;14.83;;;;;;;4.04;100.00;96518.84;4953198;29;20185;-68
2021/12/15 04:45:41;;;;;;;22.17;13.47;;;;;;;3.98;100.00;96522.88;4953800;29;20589;-54
2021/12/15 04:48:08;;;;;;;26.60;13.40;;;;;;;3.99;100.00;96523.66;4953550;29;20213;-48
2021/12/15 04:50:33;;;;;;;24.67;14.00;;;;;;;3.90;100.00;96528.38;4953574;29;20196;-47
2021/12/15 04:53:03;;;;;;;23.77;14.20;;;;;;;3.95;100.00;96520.03;4953279;29;20665;-47
2021/12/15 04:55:29;;;;;;;22.27;14.30;;;;;;;3.98;100.00;96522.09;4953366;29;20240;-46
2021/12/15 04:57:57;;;;;;;22.30;13.53;;;;;;;4.01;100.00;96524.13;4953276;29;20189;-48
2021/12/15 05:00:28;;;;;;;22.67;13.00;;;;;;;3.99;100.00;96524.47;4952981;29;20210;-52
2021/12/15 05:02:54;;;;;;;21.30;12.77;;;;;;;3.94;100.00;96523.88;4953014;29;20213;-59
2021/12/15 05:05:22;;;;;;;26.70;14.47;;;;;;;3.90;100.00;96533.78;4953025;29;20279;-60
2021/12/15 05:07:49;;;;;;;22.93;13.53;;;;;;;3.89;100.00;96532.97;4952997;29;20193;-55
2021/12/15 05:10:17;;;;;;;21.50;13.27;;;;;;;3.90;100.00;96531.06;4953434;29;20236;-59
2021/12/15 05:12:42;;;;;;;21.37;12.63;;;;;;;3.84;100.00;96529.69;4953064;28;20185;-56
2021/12/15 05:15:09;;;;;;;23.97;12.47;;;;;;;3.81;100.00;96541.94;4953050;29;20200;-54
2021/12/15 05:17:34;;;;;;;23.37;13.53;;;;;;;3.81;100.00;96547.34;4953991;28;20215;-58
2021/12/15 05:20:03;;;;;;;20.17;12.70;;;;;;;3.86;100.00;96551.78;4957013;29;20225;-57
2021/12/15 05:22:31;;;;;;;24.07;12.23;;;;;;;3.73;100.00;96550.13;4957906;28;20177;-58
2021/12/15 05:24:57;;;;;;;22.47;11.77;;;;;;;3.75;100.00;96547.91;4956738;28;20193;-61
2021/12/15 05:27:22;;;;;;;19.43;12.50;;;;;;;3.78;100.00;96547.25;4973301;28;20192;-61
2021/12/15 05:29:50;;;;;;;23.07;14.20;;;;;;;3.82;100.00;96556.25;4957007;29;20212;-61
2021/12/15 05:32:18;;;;;;;22.73;13.13;;;;;;;3.87;100.00;96556.03;4956471;29;20560;-61
2021/12/15 05:34:46;;;;;;;20.53;13.77;;;;;;;3.82;100.00;96548.16;4956421;29;20245;-62
2021/12/15 05:37:12;;;;;;;21.13;14.47;;;;;;;3.87;100.00;96556.84;4956506;29;20200;-62
2021/12/15 05:39:40;;;;;;;22.17;14.10;;;;;;;3.85;100.00;96558.31;4956144;28;20290;-55
2021/12/15 05:42:05;;;;;;;20.10;13.13;;;;;;;3.80;100.00;96561.19;4957368;28;20181;-59
2021/12/15 05:44:31;;;;;;;22.73;13.97;;;;;;;3.80;100.00;96561.19;4956692;29;20317;-61
2021/12/15 05:46:59;;;;;;;25.43;14.63;;;;;;;3.85;100.00;96563.72;4956893;29;20196;-61
2021/12/15 05:49:25;;;;;;;21.20;13.33;;;;;;;3.88;100.00;96563.03;4956302;28;20702;-62
2021/12/15 05:51:51;;;;;;;21.13;13.57;;;;;;;3.83;100.00;96569.44;4956571;28;20721;-61
2021/12/15 05:54:17;;;;;;;22.00;13.57;;;;;;;3.84;100.00;96567.50;4956227;29;20205;-62
2021/12/15 05:56:42;;;;;;;27.80;14.73;;;;;;;3.90;100.00;96579.69;4956258;29;20189;-61
2021/12/15 05:59:08;;;;;;;24.73;14.60;;;;;;;3.89;100.00;96572.72;4956173;28;20256;-61
2021/12/15 06:01:34;;;;;;;27.17;15.93;;;;;;;3.94;100.00;96580.63;4956105;29;20188;-64
2021/12/15 06:04:00;;;;;;;26.13;15.30;;;;;;;3.94;100.00;96584.13;4956000;29;20193;-62
2021/12/15 06:06:28;;;;;;;25.93;15.53;;;;;;;3.90;100.00;96583.19;4956107;28;20328;-61
2021/12/15 06:08:54;;;;;;;25.00;15.53;;;;;;;3.91;100.00;96583.97;4955784;29;20228;-61
2021/12/15 06:11:20;;;;;;;23.90;15.57;;;;;;;3.90;100.00;96587.81;4956444;28;20742;-61
2021/12/15 06:13:48;;;;;;;25.03;15.07;;;;;;;3.80;100.00;96590.91;4957077;28;20292;-60
2021/12/15 06:16:17;;;;;;;25.13;15.13;;;;;;;3.78;100.00;96595.84;4955793;29;20279;-61
2021/12/15 06:18:42;;;;;;;27.03;15.87;;;;;;;3.74;100.00;96600.31;4955974;28;20197;-58
2021/12/15 06:21:08;;;;;;;29.67;15.83;;;;;;;3.72;100.00;96603.38;4955927;28;20182;-55
2021/12/15 06:23:34;;;;;;;23.23;14.43;;;;;;;3.77;100.00;96599.66;4955846;28;20272;-55
2021/12/15 06:26:01;;;;;;;20.80;12.33;;;;;;;3.72;100.00;96608.78;4955716;29;20189;-56
2021/12/15 06:28:29;;;;;;;21.33;12.13;;;;;;;3.65;100.00;96613.09;4955439;29;20221;-59
2021/12/15 06:30:56;;;;;;;20.50;12.63;;;;;;;3.66;100.00;96611.97;4955106;28;20185;-59
2021/12/15 06:33:22;;;;;;;21.10;11.33;;;;;;;3.65;100.00;96624.72;4955571;28;20217;-60
2021/12/15 06:35:53;;;;;;;17.60;10.03;;;;;;;3.68;100.00;96623.25;4955757;28;20568;-51
2021/12/15 06:38:21;;;;;;;19.93;12.40;;;;;;;3.70;100.00;96621.00;4955863;29;20185;-59
2021/12/15 06:40:46;;;;;;;22.97;12.40;;;;;;;3.76;100.00;96614.28;4955739;29;20185;-60
2021/12/15 06:43:12;;;;;;;23.37;13.30;;;;;;;3.77;100.00;96616.66;4955666;29;20668;-60
2021/12/15 06:45:51;;;;;;;24.93;14.87;;;;;;;3.82;100.00;96623.78;4955532;28;20197;-60
2021/12/15 06:59:12;;;;;;;24.47;13.30;;;;;;;3.74;100.00;96633.53;4956593;29;20615;-68
2021/12/15 07:01:38;;;;;;;22.20;13.90;;;;;;;3.79;100.00;96635.25;4955272;29;20639;-67
2021/12/15 07:04:03;;;;;;;24.10;15.10;;;;;;;3.80;100.00;96642.22;4955141;29;20186;-68
2021/12/15 07:06:29;;;;;;;26.83;15.10;;;;;;;3.85;100.00;96642.03;4954889;29;20193;-65
2021/12/15 07:08:54;;;;;;;27.93;15.50;;;;;;;3.86;100.00;96646.31;4954833;29;20269;-65
2021/12/15 07:11:19;;;;;;;29.37;15.83;;;;;;;3.78;100.00;96655.28;4954901;28;20197;-65
2021/12/15 07:13:46;;;;;;;31.93;16.43;;;;;;;3.79;100.00;96654.94;4954707;28;20201;-51
2021/12/15 07:16:12;;;;;;;27.97;16.37;;;;;;;3.85;100.00;96644.75;4954857;28;20198;-65
2021/12/15 07:21:22;;;;;;;36.10;17.63;;;;;;;3.78;100.00;96660.69;4956180;28;20251;-64
2021/12/15 07:23:49;;;;;;;34.57;16.63;;;;;;;3.83;100.00;96646.97;4954957;29;20193;-64
2021/12/15 07:26:15;;;;;;;33.83;15.83;;;;;;;3.89;100.00;96645.66;4954597;28;20247;-65
2021/12/15 07:28:41;;;;;;;33.83;17.60;;;;;;;3.92;100.00;96650.38;4954310;28;20224;-65
2021/12/15 07:31:08;;;;;;;36.30;18.33;;;;;;;3.92;100.00;96653.09;4954660;28;20275;-59
2021/12/15 07:33:34;;;;;;;35.27;17.70;;;;;;;3.90;100.00;96658.84;4954448;29;20193;-65
2021/12/15 07:36:01;;;;;;;38.47;17.30;;;;;;;3.96;100.00;96654.81;4954456;29;20197;-66
2021/12/15 07:38:27;;;;;;;34.17;16.70;;;;;;;4.02;100.00;96650.81;4954149;28;20193;-66
2021/12/15 07:40:52;;;;;;;35.20;17.77;;;;;;;4.01;100.00;96651.13;4953622;28;20729;-65
2021/12/15 07:43:24;;;;;;;37.80;17.63;;;;;;;4.06;100.00;96657.13;4953964;28;20189;-66
2021/12/15 07:46:02;;;;;;;39.63;17.93;;;;;;;4.07;100.00;96663.31;4954299;29;20692;-65
2021/12/15 07:48:30;;;;;;;40.17;19.20;;;;;;;4.05;100.00;96668.25;4954184;29;20244;-50
2021/12/15 07:50:58;;;;;;;41.17;18.83;;;;;;;4.08;100.00;96679.19;4954537;29;20224;-64
2021/12/15 07:53:24;;;;;;;37.27;18.53;;;;;;;4.04;100.00;96674.78;4954022;29;20200;-64
2021/12/15 07:55:51;;;;;;;34.63;17.57;;;;;;;4.08;100.00;96678.41;4954120;28;20205;-64
2021/12/15 07:58:18;;;;;;;38.07;18.57;;;;;;;4.01;100.00;96680.84;4954132;29;20193;-63
2021/12/15 08:00:45;;;;;;;40.37;18.13;;;;;;;4.02;100.00;96685.13;4953971;29;20279;-65
2021/12/15 08:03:12;;;;;;;35.40;18.67;;;;;;;4.05;100.00;96692.56;4953896;28;20197;-64
2021/12/15 08:05:38;;;;;;;39.57;18.83;;;;;;;4.04;100.00;96696.41;4953960;29;20244;-64
2021/12/15 08:08:04;;;;;;;35.40;18.40;;;;;;;4.02;100.00;96698.63;4970136;28;20193;-61
2021/12/15 08:10:30;;;;;;;39.00;17.23;;;;;;;4.07;100.00;96695.75;4954145;29;20247;-62
2021/12/15 08:12:56;;;;;;;35.90;16.80;;;;;;;4.06;100.00;96696.84;4954258;29;20229;-63
2021/12/15 08:15:21;;;;;;;32.37;16.47;;;;;;;4.03;100.00;96700.22;4953971;29;20185;-64
2021/12/15 08:17:51;;;;;;;37.47;17.87;;;;;;;4.02;100.00;96698.63;4953643;29;20196;-63
2021/12/15 08:20:18;;;;;;;38.37;17.87;;;;;;;4.08;100.00;96702.75;4954533;28;20181;-65
2021/12/15 08:22:44;;;;;;;37.40;18.20;;;;;;;4.13;100.00;96694.41;4953495;28;20193;-63
2021/12/15 08:25:12;;;;;;;58.20;31.97;;;;;;;4.18;100.00;96699.66;4953810;29;20181;-63
2021/12/15 08:27:37;;;;;;;37.03;17.93;;;;;;;4.30;100.00;96699.69;4953724;29;20572;-60
2021/12/15 08:30:07;;;;;;;36.23;17.77;;;;;;;4.33;100.00;96696.34;4953475;29;20348;-62
2021/12/15 08:32:32;;;;;;;34.07;16.70;;;;;;;4.34;100.00;96696.00;4953379;29;20276;-62
2021/12/15 08:34:57;;;;;;;35.30;17.63;;;;;;;4.28;100.00;96696.53;4953641;29;20255;-63
2021/12/15 08:37:23;;;;;;;35.23;16.77;;;;;;;4.28;100.00;96696.53;4953317;28;20236;-62
2021/12/15 08:39:48;;;;;;;31.53;16.47;;;;;;;4.37;100.00;96699.97;4953905;29;20185;-60
2021/12/15 08:42:14;;;;;;;32.43;16.37;;;;;;;4.35;100.00;96707.59;4954005;29;20357;-63
2021/12/15 08:44:40;;;;;;;31.50;15.80;;;;;;;4.31;100.00;96707.47;4953601;28;20197;-60
2021/12/15 08:47:08;;;;;;;32.17;16.30;;;;;;;4.36;100.00;96703.75;4953494;29;20192;-53
2021/12/15 08:49:33;;;;;;;35.80;16.27;;;;;;;4.42;100.00;96705.16;4953514;29;20201;-54
2021/12/15 08:51:59;;;;;;;27.33;15.13;;;;;;;4.46;100.00;96698.75;4953791;28;20212;-53
2021/12/15 08:54:25;;;;;;;30.27;15.97;;;;;;;4.46;100.00;96693.34;4959598;28;20189;-52
2021/12/15 08:56:52;;;;;;;35.30;17.00;;;;;;;4.44;100.00;96700.22;4959909;28;20189;-51
2021/12/15 08:59:18;;;;;;;30.03;15.50;;;;;;;4.44;100.00;96705.63;4961090;28;20199;-54
2021/12/15 09:01:45;;;;;;;30.73;15.57;;;;;;;4.52;100.00;96710.16;4960779;28;20185;-55
2021/12/15 09:04:13;;;;;;;30.23;14.40;;;;;;;4.49;100.00;96703.50;4959564;29;20195;-63
2021/12/15 09:06:39;;;;;;;27.30;14.37;;;;;;;4.44;100.00;96711.03;4959195;28;20199;-61
2021/12/15 09:09:08;;;;;;;29.67;16.27;;;;;;;4.59;100.00;96713.13;4960814;28;20620;-62
2021/12/15 09:11:34;;;;;;;29.57;15.23;;;;;;;4.58;100.00;96711.53;4959507;28;20193;-61
2021/12/15 09:14:01;;;;;;;25.70;14.43;;;;;;;4.65;100.00;96717.19;4959824;28;20197;-63
2021/12/15 09:16:27;;;;;;;27.47;15.00;;;;;;;4.62;100.00;96712.47;4959691;28;20542;-65
2021/12/15 09:18:55;;;;;;;26.80;13.80;;;;;;;4.58;100.00;96706.13;4959795;28;20189;-62
2021/12/15 09:21:24;;;;;;;26.23;13.93;;;;;;;4.68;100.00;96705.72;4959372;28;20189;-50
2021/12/15 09:23:49;;;;;;;29.57;14.87;;;;;;;4.52;100.00;96705.53;4959660;28;20208;-57
2021/12/15 09:26:15;;;;;;;25.00;13.23;;;;;;;4.53;100.00;96717.16;4959633;28;20189;-58
2021/12/15 09:28:40;;;;;;;27.90;14.60;;;;;;;4.67;100.00;96709.53;4959495;28;20359;-56
2021/12/15 09:31:07;;;;;;;23.70;12.83;;;;;;;4.70;100.00;96698.06;4959289;29;20189;-57
2021/12/15 09:33:34;;;;;;;25.60;12.63;;;;;;;4.73;100.00;96708.22;4959373;28;20193;-58
2021/12/15 09:36:02;;;;;;;28.10;13.27;;;;;;;4.77;100.00;96703.72;4959168;28;20635;-57
2021/12/15 09:38:28;;;;;;;22.03;12.33;;;;;;;4.78;100.00;96697.19;4959443;29;20193;-57
2021/12/15 09:40:56;;;;;;;22.23;12.80;;;;;;;4.71;100.00;96696.94;4959810;29;20195;-50
2021/12/15 09:43:26;;;;;;;23.47;12.57;;;;;;;4.71;100.00;96705.84;4959437;29;20247;-62
2021/12/15 09:45:56;;;;;;;26.67;13.67;;;;;;;4.83;100.00;96713.19;4959520;29;20185;-62
2021/12/15 10:04:57;;;;;;;24.13;12.30;;;;;;;4.90;100.00;96702.63;4957728;28;20193;-47
2021/12/15 10:11:14;;;;;;;22.90;12.53;;;;;;;4.96;100.00;96696.66;4957582;29;20225;-47
2021/12/15 10:18:29;;;;;;;19.97;11.73;;;;;;;4.88;100.00;96694.06;4957087;29;20204;-49
2021/12/15 10:20:56;;;;;;;21.77;11.83;;;;;;;4.90;100.00;96689.91;4956341;28;20189;-61
2021/12/15 10:23:25;;;;;;;17.73;11.20;;;;;;;4.87;100.00;96689.75;4955985;28;20217;-61
2021/12/15 10:25:54;;;;;;;19.20;11.33;;;;;;;4.98;100.00;96682.78;4955994;28;20240;-61
2021/12/15 10:28:27;;;;;;;20.03;11.43;;;;;;;4.83;100.00;96683.44;4955918;29;20209;-62
2021/12/15 10:31:02;;;;;;;20.67;11.43;;;;;;;4.94;100.00;96687.28;4956405;28;20189;-62
2021/12/15 10:33:29;;;;;;;21.07;12.20;;;;;;;5.00;100.00;96680.56;4955498;29;20248;-62
2021/12/15 10:36:20;;;;;;;21.87;12.43;;;;;;;5.01;100.00;96676.72;4955976;28;20233;-55
2021/12/15 10:38:48;;;;;;;22.97;12.27;;;;;;;5.04;100.00;96676.03;4955166;29;20217;-47
2021/12/15 10:41:14;;;;;;;23.30;12.70;;;;;;;5.09;100.00;96673.09;4956785;28;20193;-49
2021/12/15 10:43:47;;;;;;;17.97;11.13;;;;;;;5.07;100.00;96669.97;4955842;28;20196;-48
2021/12/15 10:46:17;;;;;;;15.53;9.30;;;;;;;5.08;100.00;96676.94;4955550;28;20317;-47
2021/12/15 10:48:54;;;;;;;15.83;9.10;;;;;;;5.03;100.00;96669.84;4955554;28;20296;-46
2021/12/15 10:51:38;;;;;;;15.03;8.83;;;;;;;4.96;100.00;96674.22;4971486;28;20209;-47
2021/12/15 10:54:23;;;;;;;13.70;7.73;;;;;;;5.08;100.00;96676.94;4971288;28;20235;-56
2021/12/15 10:56:54;;;;;;;13.23;7.97;;;;;;;5.04;100.00;96684.16;4955236;29;20211;-62
2021/12/15 10:59:21;;;;;;;15.87;8.50;;;;;;;5.11;100.00;96679.00;4955527;29;20185;-63
2021/12/15 11:02:05;;;;;;;13.83;8.10;;;;;;;4.99;100.00;96689.81;4955162;28;20186;-62
2021/12/15 11:04:45;;;;;;;12.67;7.83;;;;;;;5.00;100.00;96683.25;4971579;28;20212;-61
2021/12/15 11:07:29;;;;;;;11.37;7.80;;;;;;;5.09;100.00;96676.63;4954946;29;20264;-60
2021/12/15 11:10:17;;;;;;;12.27;8.73;;;;;;;5.18;100.00;96666.50;4971092;28;20301;-64
2021/12/15 11:12:57;;;;;;;11.07;7.23;;;;;;;5.17;100.00;96662.19;4955771;29;20194;-59
2021/12/15 11:15:23;;;;;;;11.10;7.23;;;;;;;5.13;100.00;96671.34;5003000;23;20234;-59
2021/12/15 11:17:54;;;;;;;10.37;6.80;;;;;;;5.12;100.00;96667.84;4977330;28;20196;-61
2021/12/15 11:20:27;;;;;;;12.07;7.17;;;;;;;5.13;100.00;96664.00;4977556;28;20192;-59
2021/12/15 11:23:05;;;;;;;12.67;7.83;;;;;;;5.19;100.00;96651.03;4977147;28;20234;-57
2021/12/15 11:25:49;;;;;;;8.73;6.17;;;;;;;5.12;100.00;96661.63;4976939;28;20247;-61
2021/12/15 11:28:24;;;;;;;8.40;5.23;;;;;;;5.00;100.00;96646.16;4976875;28;20201;-59
2021/12/15 11:30:53;;;;;;;5.67;3.80;;;;;;;4.96;100.00;96644.47;4977426;28;20708;-43
2021/12/15 11:33:37;;;;;;;6.83;4.90;;;;;;;4.95;100.00;96646.38;4976847;28;20188;-48
2021/12/15 11:36:05;;;;;;;7.77;5.07;;;;;;;5.05;100.00;96650.56;4977009;28;20189;-46
2021/12/15 11:38:47;;;;;;;6.93;5.20;;;;;;;5.12;100.00;96653.50;4977141;28;20255;-47
2021/12/15 11:41:24;;;;;;;6.80;4.80;;;;;;;5.04;100.00;96654.41;4976896;28;20191;-48
2021/12/15 11:43:52;;;;;;;7.20;5.20;;;;;;;5.07;100.00;96648.31;4976736;28;20188;-48
2021/12/15 11:46:27;;;;;;;7.33;4.30;;;;;;;5.17;100.00;96642.47;4977033;28;20276;-47
2021/12/15 11:49:01;;;;;;;5.83;4.20;;;;;;;4.98;100.00;96655.72;4976797;28;20203;-42
2021/12/15 11:51:45;;;;;;;6.43;4.07;;;;;;;5.06;100.00;96652.16;4976611;28;20215;-57
2021/12/15 11:54:23;;;;;;;6.00;4.10;;;;;;;5.13;100.00;96646.97;4976883;28;20319;-61
2021/12/15 11:56:55;;;;;;;6.33;4.40;;;;;;;5.23;100.00;96641.09;4976443;28;20203;-59
2021/12/15 11:59:23;;;;;;;5.33;4.37;;;;;;;5.30;100.00;96647.53;4976381;28;20214;-59
2021/12/15 12:02:10;;;;;;;6.07;4.07;;;;;;;5.27;100.00;96642.00;4993902;28;20342;-60
2021/12/15 12:04:42;;;;;;;7.70;4.07;;;;;;;5.20;100.00;96641.75;4976384;28;20187;-60
2021/12/15 12:07:28;;;;;;;5.63;3.53;;;;;;;5.15;100.00;96637.38;4976288;28;20188;-56
2021/12/15 12:09:55;;;;;;;6.00;3.53;;;;;;;5.18;100.00;96641.31;4976190;28;20215;-61
2021/12/15 12:12:25;;;;;;;5.50;3.53;;;;;;;5.26;100.00;96635.00;4993434;28;20183;-61
2021/12/15 12:14:52;;;;;;;7.77;3.97;;;;;;;5.25;100.00;96628.03;4976042;28;20179;-61
2021/12/15 12:17:19;;;;;;;4.67;3.60;;;;;;;5.30;100.00;96635.91;4976326;28;20191;-62
2021/12/15 12:19:49;;;;;;;5.30;3.70;;;;;;;5.26;100.00;96626.88;4975941;28;20435;-61
2021/12/15 12:22:15;;;;;;;5.93;3.67;;;;;;;5.23;100.00;96630.25;4975986;28;20188;-60
2021/12/15 12:24:44;;;;;;;4.13;3.13;;;;;;;5.27;100.00;96623.84;4975662;28;20184;-62
2021/12/15 12:27:10;;;;;;;6.73;3.70;;;;;;;5.32;100.00;96622.84;4975096;28;20188;-59
2021/12/15 12:29:36;;;;;;;5.47;3.90;;;;;;;5.39;100.00;96621.13;4951937;29;20224;-55
2021/12/15 12:32:03;;;;;;;5.20;3.63;;;;;;;5.33;100.00;96617.09;4952024;29;20197;-54
2021/12/15 12:34:28;;;;;;;7.50;4.63;;;;;;;5.23;100.00;96616.72;4952007;28;20220;-53